sensor_id;sensor_type;location;lat;lon;timestamp;P1;durP1;ratioP1;P2;durP2;ratioP2
7289;SDS011;63176;52.678;13.250;2022-10-30T00:01:26;24.83;;;15.50;;
7289;SDS011;63176;52.678;13.250;2022-10-30T00:03:52;27.37;;;14.93;;
7289;SDS011;63176;52.678;13.250;2022-10-30T00:06:18;28.23;;;14.00;;
7289;SDS011;63176;52.678;13.250;2022-10-30T00:08:43;25.83;;;14.87;;
7289;SDS011;63176;52.678;13.250;2022-10-30T00:11:10;28.07;;;16.47;;
7289;SDS011;63176;52.678;13.250;2022-10-30T00:13:37;25.43;;;16.43;;
7289;SDS011;63176;52.678;13.250;2022-10-30T00:16:04;22.47;;;15.30;;
7289;SDS011;63176;52.678;13.250;2022-10-30T00:18:31;26.40;;;15.60;;
7289;SDS011;63176;52.678;13.250;2022-10-30T00:21:03;23.00;;;15.57;;
7289;SDS011;63176;52.678;13.250;2022-10-30T00:23:33;23.43;;;15.00;;
7289;SDS011;63176;52.678;13.250;2022-10-30T00:26:03;22.87;;;15.80;;
7289;SDS011;63176;52.678;13.250;2022-10-30T00:28:32;23.65;;;14.70;;
7289;SDS011;63176;52.678;13.250;2022-10-30T00:30:58;24.90;;;15.07;;
7289;SDS011;63176;52.678;13.250;2022-10-30T00:33:28;22.92;;;14.43;;
7289;SDS011;63176;52.678;13.250;2022-10-30T00:35:54;28.57;;;15.60;;
7289;SDS011;63176;52.678;13.250;2022-10-30T00:38:19;26.70;;;16.60;;
7289;SDS011;63176;52.678;13.250;2022-10-30T00:40:45;23.27;;;14.90;;
7289;SDS011;63176;52.678;13.250;2022-10-30T00:43:25;25.73;;;16.90;;
7289;SDS011;63176;52.678;13.250;2022-10-30T00:45:51;27.90;;;17.45;;
7289;SDS011;63176;52.678;13.250;2022-10-30T00:48:17;30.45;;;17.67;;
7289;SDS011;63176;52.678;13.250;2022-10-30T00:50:44;37.22;;;16.90;;
7289;SDS011;63176;52.678;13.250;2022-10-30T00:53:11;25.87;;;17.80;;
7289;SDS011;63176;52.678;13.250;2022-10-30T00:55:42;28.13;;;17.88;;
7289;SDS011;63176;52.678;13.250;2022-10-30T00:58:17;30.38;;;18.35;;
7289;SDS011;63176;52.678;13.250;2022-10-30T01:00:48;27.83;;;17.20;;
7289;SDS011;63176;52.678;13.250;2022-10-30T01:03:17;28.70;;;18.50;;
7289;SDS011;63176;52.678;13.250;2022-10-30T01:05:45;28.23;;;16.45;;
7289;SDS011;63176;52.678;13.250;2022-10-30T01:08:14;36.20;;;16.88;;
7289;SDS011;63176;52.678;13.250;2022-10-30T01:10:40;25.17;;;17.60;;
7289;SDS011;63176;52.678;13.250;2022-10-30T01:13:06;24.67;;;16.67;;
7289;SDS011;63176;52.678;13.250;2022-10-30T01:15:34;24.00;;;17.03;;
7289;SDS011;63176;52.678;13.250;2022-10-30T01:23:32;23.00;;;16.70;;
7289;SDS011;63176;52.678;13.250;2022-10-30T01:31:43;22.73;;;15.00;;
7289;SDS011;63176;52.678;13.250;2022-10-30T01:34:50;22.08;;;14.82;;
7289;SDS011;63176;52.678;13.250;2022-10-30T01:39:52;21.92;;;14.15;;
7289;SDS011;63176;52.678;13.250;2022-10-30T01:45:02;24.38;;;14.80;;
7289;SDS011;63176;52.678;13.250;2022-10-30T01:47:32;24.10;;;14.20;;
7289;SDS011;63176;52.678;13.250;2022-10-30T01:53:25;21.50;;;14.30;;
7289;SDS011;63176;52.678;13.250;2022-10-30T01:56:03;27.15;;;14.45;;
7289;SDS011;63176;52.678;13.250;2022-10-30T01:58:34;22.15;;;13.57;;
7289;SDS011;63176;52.678;13.250;2022-10-30T02:01:07;18.13;;;13.25;;
7289;SDS011;63176;52.678;13.250;2022-10-30T02:03:33;22.00;;;14.10;;
7289;SDS011;63176;52.678;13.250;2022-10-30T02:05:58;21.27;;;14.67;;
7289;SDS011;63176;52.678;13.250;2022-10-30T02:08:25;29.40;;;14.10;;
7289;SDS011;63176;52.678;13.250;2022-10-30T02:10:51;25.05;;;13.38;;
7289;SDS011;63176;52.678;13.250;2022-10-30T02:13:18;27.75;;;15.73;;
7289;SDS011;63176;52.678;13.250;2022-10-30T02:15:44;29.52;;;15.90;;
7289;SDS011;63176;52.678;13.250;2022-10-30T02:18:11;19.67;;;14.63;;
7289;SDS011;63176;52.678;13.250;2022-10-30T02:20:37;23.60;;;13.97;;
7289;SDS011;63176;52.678;13.250;2022-10-30T02:23:03;22.07;;;13.70;;
7289;SDS011;63176;52.678;13.250;2022-10-30T02:25:30;18.35;;;13.40;;
7289;SDS011;63176;52.678;13.250;2022-10-30T02:27:56;20.77;;;13.85;;
7289;SDS011;63176;52.678;13.250;2022-10-30T02:30:21;26.23;;;14.87;;
7289;SDS011;63176;52.678;13.250;2022-10-30T02:32:47;23.50;;;14.53;;
7289;SDS011;63176;52.678;13.250;2022-10-30T02:35:13;24.73;;;13.90;;
7289;SDS011;63176;52.678;13.250;2022-10-30T02:37:38;21.33;;;13.90;;
7289;SDS011;63176;52.678;13.250;2022-10-30T02:40:04;23.43;;;14.90;;
7289;SDS011;63176;52.678;13.250;2022-10-30T02:42:32;24.70;;;14.83;;
7289;SDS011;63176;52.678;13.250;2022-10-30T02:44:59;25.70;;;14.73;;
7289;SDS011;63176;52.678;13.250;2022-10-30T02:47:24;23.43;;;14.00;;
7289;SDS011;63176;52.678;13.250;2022-10-30T02:49:52;18.05;;;13.30;;
7289;SDS011;63176;52.678;13.250;2022-10-30T02:52:17;20.80;;;13.10;;
7289;SDS011;63176;52.678;13.250;2022-10-30T02:54:43;25.50;;;14.50;;
7289;SDS011;63176;52.678;13.250;2022-10-30T02:57:08;21.47;;;13.83;;
7289;SDS011;63176;52.678;13.250;2022-10-30T02:59:34;23.20;;;14.23;;
7289;SDS011;63176;52.678;13.250;2022-10-30T03:02:00;20.40;;;12.93;;
7289;SDS011;63176;52.678;13.250;2022-10-30T03:04:25;20.63;;;13.70;;
7289;SDS011;63176;52.678;13.250;2022-10-30T03:06:51;22.90;;;14.20;;
7289;SDS011;63176;52.678;13.250;2022-10-30T03:09:17;21.03;;;12.80;;
7289;SDS011;63176;52.678;13.250;2022-10-30T03:11:42;16.60;;;12.70;;
7289;SDS011;63176;52.678;13.250;2022-10-30T03:14:08;17.73;;;12.00;;
7289;SDS011;63176;52.678;13.250;2022-10-30T03:16:35;20.75;;;13.23;;
7289;SDS011;63176;52.678;13.250;2022-10-30T03:19:01;24.45;;;13.30;;
7289;SDS011;63176;52.678;13.250;2022-10-30T03:21:27;23.50;;;13.98;;
7289;SDS011;63176;52.678;13.250;2022-10-30T03:23:53;19.20;;;12.57;;
7289;SDS011;63176;52.678;13.250;2022-10-30T03:26:19;19.23;;;12.40;;
7289;SDS011;63176;52.678;13.250;2022-10-30T03:28:46;18.75;;;12.35;;
7289;SDS011;63176;52.678;13.250;2022-10-30T03:31:13;17.73;;;13.20;;
7289;SDS011;63176;52.678;13.250;2022-10-30T03:33:40;20.25;;;12.80;;
7289;SDS011;63176;52.678;13.250;2022-10-30T03:36:07;22.73;;;13.25;;
7289;SDS011;63176;52.678;13.250;2022-10-30T03:38:34;26.40;;;13.43;;
7289;SDS011;63176;52.678;13.250;2022-10-30T03:41:00;18.55;;;13.50;;
7289;SDS011;63176;52.678;13.250;2022-10-30T03:43:26;24.67;;;13.10;;
7289;SDS011;63176;52.678;13.250;2022-10-30T03:45:53;23.87;;;12.93;;
7289;SDS011;63176;52.678;13.250;2022-10-30T03:48:20;23.58;;;13.88;;
7289;SDS011;63176;52.678;13.250;2022-10-30T03:50:47;24.02;;;13.65;;
7289;SDS011;63176;52.678;13.250;2022-10-30T03:53:14;16.55;;;12.43;;
7289;SDS011;63176;52.678;13.250;2022-10-30T03:55:40;24.60;;;13.48;;
7289;SDS011;63176;52.678;13.250;2022-10-30T03:58:06;16.87;;;12.50;;
7289;SDS011;63176;52.678;13.250;2022-10-30T04:00:32;18.95;;;12.85;;
7289;SDS011;63176;52.678;13.250;2022-10-30T04:02:58;18.00;;;11.80;;
7289;SDS011;63176;52.678;13.250;2022-10-30T04:05:25;20.60;;;11.90;;
7289;SDS011;63176;52.678;13.250;2022-10-30T04:08:10;21.30;;;12.05;;
7289;SDS011;63176;52.678;13.250;2022-10-30T04:10:41;18.52;;;12.77;;
7289;SDS011;63176;52.678;13.250;2022-10-30T04:13:08;19.70;;;11.80;;
7289;SDS011;63176;52.678;13.250;2022-10-30T04:15:35;19.00;;;12.15;;
7289;SDS011;63176;52.678;13.250;2022-10-30T04:18:01;28.33;;;12.73;;
7289;SDS011;63176;52.678;13.250;2022-10-30T04:20:29;19.67;;;12.13;;
7289;SDS011;63176;52.678;13.250;2022-10-30T04:22:55;23.90;;;12.77;;
7289;SDS011;63176;52.678;13.250;2022-10-30T04:25:21;21.02;;;12.88;;
7289;SDS011;63176;52.678;13.250;2022-10-30T04:27:47;22.45;;;13.38;;
7289;SDS011;63176;52.678;13.250;2022-10-30T04:30:13;19.73;;;12.30;;
7289;SDS011;63176;52.678;13.250;2022-10-30T04:32:49;19.13;;;11.65;;
7289;SDS011;63176;52.678;13.250;2022-10-30T04:35:16;19.63;;;12.70;;
7289;SDS011;63176;52.678;13.250;2022-10-30T04:37:50;18.63;;;12.35;;
7289;SDS011;63176;52.678;13.250;2022-10-30T04:40:18;19.40;;;12.18;;
7289;SDS011;63176;52.678;13.250;2022-10-30T04:42:45;21.80;;;12.50;;
7289;SDS011;63176;52.678;13.250;2022-10-30T04:45:12;23.83;;;12.63;;
7289;SDS011;63176;52.678;13.250;2022-10-30T04:47:37;20.40;;;11.90;;
7289;SDS011;63176;52.678;13.250;2022-10-30T04:50:03;18.23;;;12.23;;
7289;SDS011;63176;52.678;13.250;2022-10-30T04:52:29;26.02;;;13.23;;
7289;SDS011;63176;52.678;13.250;2022-10-30T04:54:55;19.03;;;12.20;;
7289;SDS011;63176;52.678;13.250;2022-10-30T04:57:20;22.50;;;12.17;;
7289;SDS011;63176;52.678;13.250;2022-10-30T04:59:46;18.80;;;12.40;;
7289;SDS011;63176;52.678;13.250;2022-10-30T05:02:11;25.37;;;12.43;;
7289;SDS011;63176;52.678;13.250;2022-10-30T05:04:37;16.47;;;11.30;;
7289;SDS011;63176;52.678;13.250;2022-10-30T05:07:03;25.50;;;13.47;;
7289;SDS011;63176;52.678;13.250;2022-10-30T05:09:28;20.90;;;12.90;;
7289;SDS011;63176;52.678;13.250;2022-10-30T05:11:54;27.10;;;12.57;;
7289;SDS011;63176;52.678;13.250;2022-10-30T05:14:19;16.37;;;12.60;;
7289;SDS011;63176;52.678;13.250;2022-10-30T05:16:45;19.57;;;11.17;;
7289;SDS011;63176;52.678;13.250;2022-10-30T05:19:11;18.87;;;12.30;;
7289;SDS011;63176;52.678;13.250;2022-10-30T05:21:36;20.90;;;12.67;;
7289;SDS011;63176;52.678;13.250;2022-10-30T05:24:02;20.30;;;12.30;;
7289;SDS011;63176;52.678;13.250;2022-10-30T05:26:28;21.27;;;12.37;;
7289;SDS011;63176;52.678;13.250;2022-10-30T05:28:54;19.40;;;13.20;;
7289;SDS011;63176;52.678;13.250;2022-10-30T05:31:19;19.40;;;11.47;;
7289;SDS011;63176;52.678;13.250;2022-10-30T05:33:45;20.30;;;12.23;;
7289;SDS011;63176;52.678;13.250;2022-10-30T05:36:10;17.43;;;11.10;;
7289;SDS011;63176;52.678;13.250;2022-10-30T05:38:36;26.70;;;12.33;;
7289;SDS011;63176;52.678;13.250;2022-10-30T05:41:02;16.60;;;10.77;;
7289;SDS011;63176;52.678;13.250;2022-10-30T05:43:27;23.70;;;12.80;;
7289;SDS011;63176;52.678;13.250;2022-10-30T05:45:53;17.23;;;12.10;;
7289;SDS011;63176;52.678;13.250;2022-10-30T05:48:18;24.20;;;12.57;;
7289;SDS011;63176;52.678;13.250;2022-10-30T05:50:44;21.87;;;12.90;;
7289;SDS011;63176;52.678;13.250;2022-10-30T05:53:09;21.10;;;11.60;;
7289;SDS011;63176;52.678;13.250;2022-10-30T05:55:35;30.07;;;14.83;;
7289;SDS011;63176;52.678;13.250;2022-10-30T05:58:02;23.80;;;13.10;;
7289;SDS011;63176;52.678;13.250;2022-10-30T06:00:29;29.75;;;14.43;;
7289;SDS011;63176;52.678;13.250;2022-10-30T06:02:59;30.20;;;13.55;;
7289;SDS011;63176;52.678;13.250;2022-10-30T06:05:26;33.60;;;14.38;;
7289;SDS011;63176;52.678;13.250;2022-10-30T06:07:54;29.80;;;14.25;;
7289;SDS011;63176;52.678;13.250;2022-10-30T06:10:23;29.05;;;15.88;;
7289;SDS011;63176;52.678;13.250;2022-10-30T06:12:52;30.98;;;14.18;;
7289;SDS011;63176;52.678;13.250;2022-10-30T06:15:18;33.53;;;15.32;;
7289;SDS011;63176;52.678;13.250;2022-10-30T06:17:44;24.20;;;13.20;;
7289;SDS011;63176;52.678;13.250;2022-10-30T06:20:10;25.33;;;13.27;;
7289;SDS011;63176;52.678;13.250;2022-10-30T06:22:35;29.20;;;14.70;;
7289;SDS011;63176;52.678;13.250;2022-10-30T06:25:01;31.07;;;13.40;;
7289;SDS011;63176;52.678;13.250;2022-10-30T06:27:32;23.70;;;12.60;;
7289;SDS011;63176;52.678;13.250;2022-10-30T06:29:58;29.42;;;13.35;;
7289;SDS011;63176;52.678;13.250;2022-10-30T06:32:24;23.70;;;12.67;;
7289;SDS011;63176;52.678;13.250;2022-10-30T06:34:49;19.00;;;12.13;;
7289;SDS011;63176;52.678;13.250;2022-10-30T06:37:15;27.87;;;11.80;;
7289;SDS011;63176;52.678;13.250;2022-10-30T06:39:41;22.50;;;13.17;;
7289;SDS011;63176;52.678;13.250;2022-10-30T06:42:06;21.20;;;11.20;;
7289;SDS011;63176;52.678;13.250;2022-10-30T06:44:32;19.70;;;12.20;;
7289;SDS011;63176;52.678;13.250;2022-10-30T06:46:58;18.47;;;12.20;;
7289;SDS011;63176;52.678;13.250;2022-10-30T06:49:24;23.40;;;13.27;;
7289;SDS011;63176;52.678;13.250;2022-10-30T06:51:49;18.13;;;11.70;;
7289;SDS011;63176;52.678;13.250;2022-10-30T06:54:15;21.10;;;13.33;;
7289;SDS011;63176;52.678;13.250;2022-10-30T06:56:41;31.57;;;13.53;;
7289;SDS011;63176;52.678;13.250;2022-10-30T06:59:06;22.37;;;12.93;;
7289;SDS011;63176;52.678;13.250;2022-10-30T07:01:33;19.75;;;12.20;;
7289;SDS011;63176;52.678;13.250;2022-10-30T07:03:59;20.13;;;12.37;;
7289;SDS011;63176;52.678;13.250;2022-10-30T07:06:24;22.20;;;13.73;;
7289;SDS011;63176;52.678;13.250;2022-10-30T07:08:50;20.57;;;11.70;;
7289;SDS011;63176;52.678;13.250;2022-10-30T07:11:16;28.43;;;13.13;;
7289;SDS011;63176;52.678;13.250;2022-10-30T07:13:41;18.30;;;12.30;;
7289;SDS011;63176;52.678;13.250;2022-10-30T07:16:07;24.17;;;13.03;;
7289;SDS011;63176;52.678;13.250;2022-10-30T07:18:32;26.07;;;13.37;;
7289;SDS011;63176;52.678;13.250;2022-10-30T07:20:58;24.60;;;12.27;;
7289;SDS011;63176;52.678;13.250;2022-10-30T07:23:24;20.87;;;12.43;;
7289;SDS011;63176;52.678;13.250;2022-10-30T07:25:49;26.03;;;13.00;;
7289;SDS011;63176;52.678;13.250;2022-10-30T07:28:16;30.23;;;13.10;;
7289;SDS011;63176;52.678;13.250;2022-10-30T07:30:41;28.88;;;14.23;;
7289;SDS011;63176;52.678;13.250;2022-10-30T07:33:07;23.23;;;13.07;;
7289;SDS011;63176;52.678;13.250;2022-10-30T07:35:34;15.87;;;11.43;;
7289;SDS011;63176;52.678;13.250;2022-10-30T07:38:02;20.45;;;12.13;;
7289;SDS011;63176;52.678;13.250;2022-10-30T07:40:32;23.57;;;11.00;;
7289;SDS011;63176;52.678;13.250;2022-10-30T07:42:59;23.30;;;11.40;;
7289;SDS011;63176;52.678;13.250;2022-10-30T07:45:25;21.80;;;12.50;;
7289;SDS011;63176;52.678;13.250;2022-10-30T07:47:51;26.90;;;11.83;;
7289;SDS011;63176;52.678;13.250;2022-10-30T07:50:17;20.50;;;11.40;;
7289;SDS011;63176;52.678;13.250;2022-10-30T07:52:43;24.10;;;10.80;;
7289;SDS011;63176;52.678;13.250;2022-10-30T07:55:09;16.50;;;10.53;;
7289;SDS011;63176;52.678;13.250;2022-10-30T07:57:35;16.97;;;9.90;;
7289;SDS011;63176;52.678;13.250;2022-10-30T08:00:05;21.20;;;11.27;;
7289;SDS011;63176;52.678;13.250;2022-10-30T08:02:32;17.53;;;10.20;;
7289;SDS011;63176;52.678;13.250;2022-10-30T08:04:58;21.90;;;10.60;;
7289;SDS011;63176;52.678;13.250;2022-10-30T08:07:28;15.30;;;9.87;;
7289;SDS011;63176;52.678;13.250;2022-10-30T08:09:57;20.70;;;10.10;;
7289;SDS011;63176;52.678;13.250;2022-10-30T08:12:23;11.40;;;8.40;;
7289;SDS011;63176;52.678;13.250;2022-10-30T08:14:49;13.30;;;8.37;;
7289;SDS011;63176;52.678;13.250;2022-10-30T08:17:15;11.30;;;7.50;;
7289;SDS011;63176;52.678;13.250;2022-10-30T08:19:40;13.40;;;7.70;;
7289;SDS011;63176;52.678;13.250;2022-10-30T08:22:07;12.30;;;8.13;;
7289;SDS011;63176;52.678;13.250;2022-10-30T08:24:34;16.40;;;8.07;;
7289;SDS011;63176;52.678;13.250;2022-10-30T08:26:59;13.90;;;7.70;;
7289;SDS011;63176;52.678;13.250;2022-10-30T08:29:25;17.00;;;6.60;;
7289;SDS011;63176;52.678;13.250;2022-10-30T08:31:51;16.83;;;7.10;;
7289;SDS011;63176;52.678;13.250;2022-10-30T08:34:16;14.03;;;7.90;;
7289;SDS011;63176;52.678;13.250;2022-10-30T08:36:42;9.13;;;6.93;;
7289;SDS011;63176;52.678;13.250;2022-10-30T08:39:08;9.50;;;7.13;;
7289;SDS011;63176;52.678;13.250;2022-10-30T08:41:33;18.60;;;7.80;;
7289;SDS011;63176;52.678;13.250;2022-10-30T08:43:59;11.87;;;7.90;;
7289;SDS011;63176;52.678;13.250;2022-10-30T08:46:25;10.57;;;6.50;;
7289;SDS011;63176;52.678;13.250;2022-10-30T08:48:50;14.17;;;6.83;;
7289;SDS011;63176;52.678;13.250;2022-10-30T08:51:16;15.13;;;7.43;;
7289;SDS011;63176;52.678;13.250;2022-10-30T08:53:42;10.13;;;7.20;;
7289;SDS011;63176;52.678;13.250;2022-10-30T08:56:07;9.20;;;6.00;;
7289;SDS011;63176;52.678;13.250;2022-10-30T08:58:33;18.73;;;8.10;;
7289;SDS011;63176;52.678;13.250;2022-10-30T09:00:58;14.23;;;7.97;;
7289;SDS011;63176;52.678;13.250;2022-10-30T09:03:24;14.33;;;7.47;;
7289;SDS011;63176;52.678;13.250;2022-10-30T09:05:50;9.80;;;6.73;;
7289;SDS011;63176;52.678;13.250;2022-10-30T09:08:15;14.50;;;7.43;;
7289;SDS011;63176;52.678;13.250;2022-10-30T09:10:41;12.53;;;7.07;;
7289;SDS011;63176;52.678;13.250;2022-10-30T09:13:07;11.77;;;7.03;;
7289;SDS011;63176;52.678;13.250;2022-10-30T09:15:33;9.50;;;7.20;;
7289;SDS011;63176;52.678;13.250;2022-10-30T09:18:00;17.30;;;7.33;;
7289;SDS011;63176;52.678;13.250;2022-10-30T09:20:27;14.90;;;6.80;;
7289;SDS011;63176;52.678;13.250;2022-10-30T09:22:53;10.37;;;5.87;;
7289;SDS011;63176;52.678;13.250;2022-10-30T09:25:19;9.97;;;5.77;;
7289;SDS011;63176;52.678;13.250;2022-10-30T09:27:45;9.47;;;5.80;;
7289;SDS011;63176;52.678;13.250;2022-10-30T09:30:11;13.57;;;6.70;;
7289;SDS011;63176;52.678;13.250;2022-10-30T09:32:38;11.53;;;6.60;;
7289;SDS011;63176;52.678;13.250;2022-10-30T09:35:04;11.13;;;6.17;;
7289;SDS011;63176;52.678;13.250;2022-10-30T09:37:36;8.00;;;6.17;;
7289;SDS011;63176;52.678;13.250;2022-10-30T09:40:03;8.20;;;5.77;;
7289;SDS011;63176;52.678;13.250;2022-10-30T09:42:36;11.87;;;6.27;;
7289;SDS011;63176;52.678;13.250;2022-10-30T09:50:25;7.93;;;5.10;;
7289;SDS011;63176;52.678;13.250;2022-10-30T09:52:59;9.23;;;5.17;;
7289;SDS011;63176;52.678;13.250;2022-10-30T09:58:24;16.27;;;5.87;;
7289;SDS011;63176;52.678;13.250;2022-10-30T10:03:48;8.53;;;5.20;;
7289;SDS011;63176;52.678;13.250;2022-10-30T10:06:32;12.20;;;5.57;;
7289;SDS011;63176;52.678;13.250;2022-10-30T10:09:05;12.50;;;5.73;;
7289;SDS011;63176;52.678;13.250;2022-10-30T10:11:39;7.17;;;5.03;;
7289;SDS011;63176;52.678;13.250;2022-10-30T10:14:19;7.57;;;4.80;;
7289;SDS011;63176;52.678;13.250;2022-10-30T10:16:48;8.43;;;4.87;;
7289;SDS011;63176;52.678;13.250;2022-10-30T10:21:48;10.13;;;4.83;;
7289;SDS011;63176;52.678;13.250;2022-10-30T10:24:38;7.23;;;4.47;;
7289;SDS011;63176;52.678;13.250;2022-10-30T10:35:48;11.43;;;5.23;;
7289;SDS011;63176;52.678;13.250;2022-10-30T10:43:48;10.73;;;5.10;;
7289;SDS011;63176;52.678;13.250;2022-10-30T10:49:05;15.73;;;4.20;;
7289;SDS011;63176;52.678;13.250;2022-10-30T10:51:38;8.40;;;5.20;;
7289;SDS011;63176;52.678;13.250;2022-10-30T10:54:10;9.90;;;4.60;;
7289;SDS011;63176;52.678;13.250;2022-10-30T10:56:50;14.73;;;5.53;;
7289;SDS011;63176;52.678;13.250;2022-10-30T10:59:25;11.17;;;5.37;;
7289;SDS011;63176;52.678;13.250;2022-10-30T11:04:52;6.00;;;4.57;;
7289;SDS011;63176;52.678;13.250;2022-10-30T11:07:23;10.10;;;5.13;;
7289;SDS011;63176;52.678;13.250;2022-10-30T11:09:55;8.13;;;4.40;;
7289;SDS011;63176;52.678;13.250;2022-10-30T11:12:33;9.73;;;4.40;;
7289;SDS011;63176;52.678;13.250;2022-10-30T11:18:00;8.07;;;4.53;;
7289;SDS011;63176;52.678;13.250;2022-10-30T11:20:35;9.93;;;4.40;;
7289;SDS011;63176;52.678;13.250;2022-10-30T11:23:28;8.10;;;5.10;;
7289;SDS011;63176;52.678;13.250;2022-10-30T11:31:39;8.57;;;4.10;;
7289;SDS011;63176;52.678;13.250;2022-10-30T11:36:50;8.13;;;3.80;;
7289;SDS011;63176;52.678;13.250;2022-10-30T11:39:18;5.93;;;4.53;;
7289;SDS011;63176;52.678;13.250;2022-10-30T11:42:11;8.63;;;4.60;;
7289;SDS011;63176;52.678;13.250;2022-10-30T11:47:14;6.03;;;4.37;;
7289;SDS011;63176;52.678;13.250;2022-10-30T11:49:47;5.70;;;4.27;;
7289;SDS011;63176;52.678;13.250;2022-10-30T11:52:18;9.43;;;4.63;;
7289;SDS011;63176;52.678;13.250;2022-10-30T11:54:51;8.50;;;4.30;;
7289;SDS011;63176;52.678;13.250;2022-10-30T11:59:59;9.47;;;4.33;;
7289;SDS011;63176;52.678;13.250;2022-10-30T12:02:26;11.90;;;4.50;;
7289;SDS011;63176;52.678;13.250;2022-10-30T12:04:54;8.20;;;4.30;;
7289;SDS011;63176;52.678;13.250;2022-10-30T12:07:31;10.80;;;4.37;;
7289;SDS011;63176;52.678;13.250;2022-10-30T12:09:57;7.40;;;3.30;;
7289;SDS011;63176;52.678;13.250;2022-10-30T12:12:35;11.27;;;4.43;;
7289;SDS011;63176;52.678;13.250;2022-10-30T12:17:38;6.47;;;4.33;;
7289;SDS011;63176;52.678;13.250;2022-10-30T12:20:05;6.23;;;4.23;;
7289;SDS011;63176;52.678;13.250;2022-10-30T12:22:37;10.40;;;4.53;;
7289;SDS011;63176;52.678;13.250;2022-10-30T12:25:05;9.90;;;4.10;;
7289;SDS011;63176;52.678;13.250;2022-10-30T12:27:39;10.87;;;4.03;;
7289;SDS011;63176;52.678;13.250;2022-10-30T12:30:18;5.30;;;3.70;;
7289;SDS011;63176;52.678;13.250;2022-10-30T12:35:39;7.13;;;4.20;;
7289;SDS011;63176;52.678;13.250;2022-10-30T12:38:16;8.07;;;4.57;;
7289;SDS011;63176;52.678;13.250;2022-10-30T12:40:57;12.37;;;4.73;;
7289;SDS011;63176;52.678;13.250;2022-10-30T12:43:38;10.43;;;4.03;;
7289;SDS011;63176;52.678;13.250;2022-10-30T12:49:06;7.50;;;3.87;;
7289;SDS011;63176;52.678;13.250;2022-10-30T12:51:40;10.30;;;4.47;;
7289;SDS011;63176;52.678;13.250;2022-10-30T12:57:04;10.53;;;3.70;;
7289;SDS011;63176;52.678;13.250;2022-10-30T13:10:41;6.77;;;3.93;;
7289;SDS011;63176;52.678;13.250;2022-10-30T13:13:44;9.33;;;4.50;;
7289;SDS011;63176;52.678;13.250;2022-10-30T13:16:17;6.50;;;3.93;;
7289;SDS011;63176;52.678;13.250;2022-10-30T13:18:54;11.73;;;4.00;;
7289;SDS011;63176;52.678;13.250;2022-10-30T13:21:33;7.30;;;3.50;;
7289;SDS011;63176;52.678;13.250;2022-10-30T13:25:25;6.03;;;3.30;;
7289;SDS011;63176;52.678;13.250;2022-10-30T13:29:54;9.27;;;4.10;;
7289;SDS011;63176;52.678;13.250;2022-10-30T13:38:16;9.10;;;4.80;;
7289;SDS011;63176;52.678;13.250;2022-10-30T13:43:27;8.83;;;3.53;;
7289;SDS011;63176;52.678;13.250;2022-10-30T13:52:14;7.00;;;4.33;;
7289;SDS011;63176;52.678;13.250;2022-10-30T13:57:22;11.77;;;5.53;;
7289;SDS011;63176;52.678;13.250;2022-10-30T13:59:54;11.83;;;4.30;;
7289;SDS011;63176;52.678;13.250;2022-10-30T14:02:38;8.80;;;3.87;;
7289;SDS011;63176;52.678;13.250;2022-10-30T14:16:29;8.20;;;4.17;;
7289;SDS011;63176;52.678;13.250;2022-10-30T14:19:06;7.77;;;4.43;;
7289;SDS011;63176;52.678;13.250;2022-10-30T14:24:24;6.27;;;3.60;;
7289;SDS011;63176;52.678;13.250;2022-10-30T14:26:54;3.77;;;3.23;;
7289;SDS011;63176;52.678;13.250;2022-10-30T14:37:11;13.83;;;4.40;;
7289;SDS011;63176;52.678;13.250;2022-10-30T14:39:40;10.60;;;4.30;;
7289;SDS011;63176;52.678;13.250;2022-10-30T14:42:10;8.30;;;4.10;;
7289;SDS011;63176;52.678;13.250;2022-10-30T14:47:50;9.80;;;4.70;;
7289;SDS011;63176;52.678;13.250;2022-10-30T14:50:41;11.40;;;4.87;;
7289;SDS011;63176;52.678;13.250;2022-10-30T14:56:07;9.20;;;4.43;;
7289;SDS011;63176;52.678;13.250;2022-10-30T15:14:48;7.00;;;4.57;;
7289;SDS011;63176;52.678;13.250;2022-10-30T15:17:33;9.30;;;5.40;;
7289;SDS011;63176;52.678;13.250;2022-10-30T15:20:02;6.70;;;4.90;;
7289;SDS011;63176;52.678;13.250;2022-10-30T15:22:32;8.50;;;4.33;;
7289;SDS011;63176;52.678;13.250;2022-10-30T15:24:59;8.10;;;4.80;;
7289;SDS011;63176;52.678;13.250;2022-10-30T15:27:27;13.73;;;5.10;;
7289;SDS011;63176;52.678;13.250;2022-10-30T15:29:58;8.13;;;3.90;;
7289;SDS011;63176;52.678;13.250;2022-10-30T15:32:25;8.97;;;5.33;;
7289;SDS011;63176;52.678;13.250;2022-10-30T15:35:01;8.13;;;5.47;;
7289;SDS011;63176;52.678;13.250;2022-10-30T15:37:29;7.03;;;4.73;;
7289;SDS011;63176;52.678;13.250;2022-10-30T15:40:08;7.20;;;4.77;;
7289;SDS011;63176;52.678;13.250;2022-10-30T15:42:33;7.43;;;4.80;;
7289;SDS011;63176;52.678;13.250;2022-10-30T15:44:59;5.37;;;4.50;;
7289;SDS011;63176;52.678;13.250;2022-10-30T15:47:27;14.00;;;5.33;;
7289;SDS011;63176;52.678;13.250;2022-10-30T15:49:53;12.93;;;4.83;;
7289;SDS011;63176;52.678;13.250;2022-10-30T15:52:24;8.43;;;4.73;;
7289;SDS011;63176;52.678;13.250;2022-10-30T15:54:55;9.83;;;4.73;;
7289;SDS011;63176;52.678;13.250;2022-10-30T15:57:38;6.40;;;4.37;;
7289;SDS011;63176;52.678;13.250;2022-10-30T16:00:18;8.70;;;5.30;;
7289;SDS011;63176;52.678;13.250;2022-10-30T16:02:47;11.03;;;4.67;;
7289;SDS011;63176;52.678;13.250;2022-10-30T16:05:22;15.23;;;5.40;;
7289;SDS011;63176;52.678;13.250;2022-10-30T16:07:49;8.00;;;4.80;;
7289;SDS011;63176;52.678;13.250;2022-10-30T16:10:15;10.60;;;5.03;;
7289;SDS011;63176;52.678;13.250;2022-10-30T16:12:42;6.80;;;4.73;;
7289;SDS011;63176;52.678;13.250;2022-10-30T16:15:23;7.90;;;4.90;;
7289;SDS011;63176;52.678;13.250;2022-10-30T16:20:34;6.77;;;5.10;;
7289;SDS011;63176;52.678;13.250;2022-10-30T16:23:00;9.70;;;5.70;;
7289;SDS011;63176;52.678;13.250;2022-10-30T16:25:28;10.70;;;5.73;;
7289;SDS011;63176;52.678;13.250;2022-10-30T16:27:55;12.37;;;6.23;;
7289;SDS011;63176;52.678;13.250;2022-10-30T16:30:21;11.13;;;6.00;;
7289;SDS011;63176;52.678;13.250;2022-10-30T16:32:53;12.13;;;6.80;;
7289;SDS011;63176;52.678;13.250;2022-10-30T16:35:20;14.23;;;7.40;;
7289;SDS011;63176;52.678;13.250;2022-10-30T16:37:48;9.87;;;6.23;;
7289;SDS011;63176;52.678;13.250;2022-10-30T16:40:22;8.93;;;6.70;;
7289;SDS011;63176;52.678;13.250;2022-10-30T16:42:53;11.70;;;7.00;;
7289;SDS011;63176;52.678;13.250;2022-10-30T16:47:51;11.87;;;7.33;;
7289;SDS011;63176;52.678;13.250;2022-10-30T16:50:22;14.20;;;6.30;;
7289;SDS011;63176;52.678;13.250;2022-10-30T16:53:04;13.10;;;7.30;;
7289;SDS011;63176;52.678;13.250;2022-10-30T16:55:31;10.60;;;6.10;;
7289;SDS011;63176;52.678;13.250;2022-10-30T16:57:57;14.30;;;7.07;;
7289;SDS011;63176;52.678;13.250;2022-10-30T17:00:25;14.40;;;7.53;;
7289;SDS011;63176;52.678;13.250;2022-10-30T17:02:52;9.90;;;7.33;;
7289;SDS011;63176;52.678;13.250;2022-10-30T17:05:30;10.57;;;7.00;;
7289;SDS011;63176;52.678;13.250;2022-10-30T17:08:04;8.90;;;6.23;;
7289;SDS011;63176;52.678;13.250;2022-10-30T17:10:57;11.93;;;6.80;;
7289;SDS011;63176;52.678;13.250;2022-10-30T17:13:29;13.80;;;8.67;;
7289;SDS011;63176;52.678;13.250;2022-10-30T17:18:50;15.33;;;8.60;;
7289;SDS011;63176;52.678;13.250;2022-10-30T17:21:17;13.27;;;8.43;;
7289;SDS011;63176;52.678;13.250;2022-10-30T17:23:49;17.67;;;8.63;;
7289;SDS011;63176;52.678;13.250;2022-10-30T17:26:18;18.33;;;9.13;;